ePrivacy and GPDR Cookie Consent by Cookie Consent
EmailTwitter


Observations de surface / France / LFBP (07610)

Régions: Québec | Canada | États-Unis | Europe | France | UK | Ailleurs
Station
Affichage
Infos & localisation pour LFBP (07610) | Aide pour décoder les METARs

Observations prises le 2022-06-25 à 16H00 UTC à PONT-LONG-UZEIN/, FR (LFBP)

Etat du ciel: partiellement nuageux.

Température: 17.0 Celsius

Point de rosée: 15.0 Celsius

Humidité relative: 88%

Indice Humidex 21.

Vents: Nord-ouest à 17 km/h ou 9 noeuds.

Pression au niveau moyen de la mer: 101.40 kilopascals.

Visibilité horizontale: 6.21 milles terrestres ou 9.94 kilomètres.

Hauteur du plafond: 549 mètres ( 1800 pieds ).

Observation METAR:

LFBP 251600Z AUTO 31009KT 9999 FEW009 BKN018 BKN024 17/15 Q1014 TEMPO 2000 RA

BKN008=